sensor_id;sensor_type;location;lat;lon;timestamp;pressure;altitude;pressure_sealevel;temperature
67829;BMP280;54626;45.436;10.942;2024-02-23T00:37:21;99215.94;;;11.00
67829;BMP280;54626;45.436;10.942;2024-02-23T00:39:48;99220.31;;;11.03
67829;BMP280;54626;45.436;10.942;2024-02-23T00:42:14;99218.78;;;10.93
67829;BMP280;54626;45.436;10.942;2024-02-23T00:44:41;99211.44;;;10.88
67829;BMP280;54626;45.436;10.942;2024-02-23T00:47:10;99206.72;;;10.81
67829;BMP280;54626;45.436;10.942;2024-02-23T00:49:36;99201.63;;;10.94
67829;BMP280;54626;45.436;10.942;2024-02-23T00:52:08;99198.53;;;10.90
67829;BMP280;54626;45.436;10.942;2024-02-23T00:54:37;99192.53;;;10.84
67829;BMP280;54626;45.436;10.942;2024-02-23T01:53:23;99068.75;;;10.92
67829;BMP280;54626;45.436;10.942;2024-02-23T01:55:53;99067.28;;;10.91
67829;BMP280;54626;45.436;10.942;2024-02-23T02:10:20;99058.81;;;10.89
67829;BMP280;54626;45.436;10.942;2024-02-23T02:12:47;99059.94;;;10.86
67829;BMP280;54626;45.436;10.942;2024-02-23T02:15:16;99045.66;;;10.80
67829;BMP280;54626;45.436;10.942;2024-02-23T02:17:45;99047.47;;;10.85
67829;BMP280;54626;45.436;10.942;2024-02-23T03:16:50;98918.72;;;11.01
67829;BMP280;54626;45.436;10.942;2024-02-23T03:19:19;98915.50;;;11.05
67829;BMP280;54626;45.436;10.942;2024-02-23T03:32:21;98907.97;;;11.15
67829;BMP280;54626;45.436;10.942;2024-02-23T03:41:01;98882.06;;;11.20
67829;BMP280;54626;45.436;10.942;2024-02-23T03:43:28;98897.50;;;11.23
67829;BMP280;54626;45.436;10.942;2024-02-23T04:28:08;98834.03;;;11.15
67829;BMP280;54626;45.436;10.942;2024-02-23T04:30:34;98835.78;;;11.30
67829;BMP280;54626;45.436;10.942;2024-02-23T04:33:01;98819.34;;;11.22
67829;BMP280;54626;45.436;10.942;2024-02-23T04:35:27;98833.28;;;11.34
67829;BMP280;54626;45.436;10.942;2024-02-23T04:37:54;98827.06;;;11.52
67829;BMP280;54626;45.436;10.942;2024-02-23T04:40:20;98817.31;;;11.51
67829;BMP280;54626;45.436;10.942;2024-02-23T04:42:47;98808.09;;;11.48
67829;BMP280;54626;45.436;10.942;2024-02-23T04:45:13;98811.31;;;11.64
67829;BMP280;54626;45.436;10.942;2024-02-23T04:48:20;98802.00;;;11.50
67829;BMP280;54626;45.436;10.942;2024-02-23T04:50:51;98800.69;;;11.51
67829;BMP280;54626;45.436;10.942;2024-02-23T04:53:22;98787.84;;;11.65
67829;BMP280;54626;45.436;10.942;2024-02-23T04:55:50;98792.78;;;11.76
67829;BMP280;54626;45.436;10.942;2024-02-23T04:58:16;98803.28;;;11.68
67829;BMP280;54626;45.436;10.942;2024-02-23T05:00:44;98782.88;;;11.63
67829;BMP280;54626;45.436;10.942;2024-02-23T05:03:19;98776.34;;;11.59
67829;BMP280;54626;45.436;10.942;2024-02-23T05:06:02;98768.47;;;11.65
67829;BMP280;54626;45.436;10.942;2024-02-23T05:08:55;98779.25;;;11.61
67829;BMP280;54626;45.436;10.942;2024-02-23T05:11:43;98777.78;;;11.79
67829;BMP280;54626;45.436;10.942;2024-02-23T05:14:12;98772.91;;;11.89
67829;BMP280;54626;45.436;10.942;2024-02-23T05:16:41;98770.59;;;11.95
67829;BMP280;54626;45.436;10.942;2024-02-23T05:19:09;98756.38;;;11.70
67829;BMP280;54626;45.436;10.942;2024-02-23T05:21:39;98751.53;;;11.70
67829;BMP280;54626;45.436;10.942;2024-02-23T05:24:26;98752.53;;;11.84
67829;BMP280;54626;45.436;10.942;2024-02-23T05:26:56;98751.38;;;11.78
67829;BMP280;54626;45.436;10.942;2024-02-23T05:29:24;98720.19;;;11.77
67829;BMP280;54626;45.436;10.942;2024-02-23T05:32:03;98713.59;;;11.82
67829;BMP280;54626;45.436;10.942;2024-02-23T05:34:30;98725.44;;;11.83
67829;BMP280;54626;45.436;10.942;2024-02-23T05:37:00;98730.84;;;11.81
67829;BMP280;54626;45.436;10.942;2024-02-23T05:39:26;98722.53;;;11.81
67829;BMP280;54626;45.436;10.942;2024-02-23T05:41:58;98727.84;;;11.88
67829;BMP280;54626;45.436;10.942;2024-02-23T05:44:28;98729.06;;;11.85
67829;BMP280;54626;45.436;10.942;2024-02-23T05:50:03;98729.31;;;11.89
67829;BMP280;54626;45.436;10.942;2024-02-23T05:52:33;98736.88;;;11.98
67829;BMP280;54626;45.436;10.942;2024-02-23T05:55:07;98733.47;;;12.09
67829;BMP280;54626;45.436;10.942;2024-02-23T05:57:37;98733.47;;;12.09
67829;BMP280;54626;45.436;10.942;2024-02-23T06:00:07;98740.06;;;12.04
67829;BMP280;54626;45.436;10.942;2024-02-23T06:02:42;98740.69;;;11.93
67829;BMP280;54626;45.436;10.942;2024-02-23T06:05:25;98733.34;;;12.07
67829;BMP280;54626;45.436;10.942;2024-02-23T06:07:54;98734.09;;;12.08
67829;BMP280;54626;45.436;10.942;2024-02-23T06:10:24;98732.66;;;11.97
67829;BMP280;54626;45.436;10.942;2024-02-23T06:12:53;98730.47;;;11.96
67829;BMP280;54626;45.436;10.942;2024-02-23T06:15:23;98734.28;;;11.91
67829;BMP280;54626;45.436;10.942;2024-02-23T06:17:49;98728.34;;;11.85
67829;BMP280;54626;45.436;10.942;2024-02-23T06:20:36;98742.16;;;11.94
67829;BMP280;54626;45.436;10.942;2024-02-23T06:23:04;98755.69;;;12.00
67829;BMP280;54626;45.436;10.942;2024-02-23T06:25:33;98755.94;;;12.04
67829;BMP280;54626;45.436;10.942;2024-02-23T06:28:05;98763.44;;;11.92
67829;BMP280;54626;45.436;10.942;2024-02-23T06:30:32;98765.63;;;11.93
67829;BMP280;54626;45.436;10.942;2024-02-23T06:32:59;98764.31;;;11.94
67829;BMP280;54626;45.436;10.942;2024-02-23T06:35:26;98747.31;;;11.79
67829;BMP280;54626;45.436;10.942;2024-02-23T06:38:01;98750.66;;;11.77
67829;BMP280;54626;45.436;10.942;2024-02-23T06:40:38;98750.38;;;11.73
67829;BMP280;54626;45.436;10.942;2024-02-23T06:43:17;98755.94;;;11.54
67829;BMP280;54626;45.436;10.942;2024-02-23T06:46:04;98761.47;;;11.64
67829;BMP280;54626;45.436;10.942;2024-02-23T06:48:33;98769.03;;;11.63
67829;BMP280;54626;45.436;10.942;2024-02-23T06:50:59;98772.69;;;11.56
67829;BMP280;54626;45.436;10.942;2024-02-23T06:53:29;98764.25;;;11.64
67829;BMP280;54626;45.436;10.942;2024-02-23T06:55:56;98745.34;;;11.51
67829;BMP280;54626;45.436;10.942;2024-02-23T06:58:22;98764.00;;;11.41
67829;BMP280;54626;45.436;10.942;2024-02-23T07:00:49;98766.44;;;11.56
67829;BMP280;54626;45.436;10.942;2024-02-23T07:03:15;98760.19;;;11.46
67829;BMP280;54626;45.436;10.942;2024-02-23T07:05:44;98749.69;;;11.54
67829;BMP280;54626;45.436;10.942;2024-02-23T07:08:12;98742.56;;;11.42
67829;BMP280;54626;45.436;10.942;2024-02-23T07:10:38;98743.31;;;11.42
67829;BMP280;54626;45.436;10.942;2024-02-23T07:13:06;98744.31;;;11.56
67829;BMP280;54626;45.436;10.942;2024-02-23T07:15:34;98743.31;;;11.42
67829;BMP280;54626;45.436;10.942;2024-02-23T07:18:02;98748.81;;;11.61
67829;BMP280;54626;45.436;10.942;2024-02-23T07:20:28;98745.47;;;11.53
67829;BMP280;54626;45.436;10.942;2024-02-23T07:22:57;98743.59;;;11.46
67829;BMP280;54626;45.436;10.942;2024-02-23T07:25:24;98742.44;;;11.49
67829;BMP280;54626;45.436;10.942;2024-02-23T07:27:50;98743.88;;;11.50
67829;BMP280;54626;45.436;10.942;2024-02-23T07:30:17;98751.75;;;11.44
67829;BMP280;54626;45.436;10.942;2024-02-23T07:32:44;98752.75;;;11.48
67829;BMP280;54626;45.436;10.942;2024-02-23T07:35:17;98754.94;;;11.50
67829;BMP280;54626;45.436;10.942;2024-02-23T07:37:44;98750.72;;;11.58
67829;BMP280;54626;45.436;10.942;2024-02-23T07:40:10;98759.59;;;11.38
67829;BMP280;54626;45.436;10.942;2024-02-23T07:42:38;98753.06;;;11.43
67829;BMP280;54626;45.436;10.942;2024-02-23T07:45:05;98752.03;;;11.48
67829;BMP280;54626;45.436;10.942;2024-02-23T07:47:32;98746.97;;;11.35
67829;BMP280;54626;45.436;10.942;2024-02-23T07:50:01;98752.03;;;11.48
67829;BMP280;54626;45.436;10.942;2024-02-23T07:52:28;98751.72;;;11.53
67829;BMP280;54626;45.436;10.942;2024-02-23T07:54:54;98740.78;;;11.65
67829;BMP280;54626;45.436;10.942;2024-02-23T07:57:21;98751.88;;;11.65
67829;BMP280;54626;45.436;10.942;2024-02-23T07:59:50;98743.56;;;11.65
67829;BMP280;54626;45.436;10.942;2024-02-23T08:02:17;98750.25;;;11.62
67829;BMP280;54626;45.436;10.942;2024-02-23T08:04:46;98741.69;;;11.58
67829;BMP280;54626;45.436;10.942;2024-02-23T08:07:15;98737.47;;;11.57
67829;BMP280;54626;45.436;10.942;2024-02-23T08:09:41;98738.28;;;11.69
67829;BMP280;54626;45.436;10.942;2024-02-23T08:12:08;98742.81;;;11.74
67829;BMP280;54626;45.436;10.942;2024-02-23T08:14:34;98740.94;;;11.57
67829;BMP280;54626;45.436;10.942;2024-02-23T08:17:01;98735.66;;;11.71
67829;BMP280;54626;45.436;10.942;2024-02-23T08:19:31;98728.81;;;11.62
67829;BMP280;54626;45.436;10.942;2024-02-23T08:22:00;98739.19;;;11.62
67829;BMP280;54626;45.436;10.942;2024-02-23T08:24:26;98736.66;;;11.75
67829;BMP280;54626;45.436;10.942;2024-02-23T08:26:53;98743.66;;;11.76
67829;BMP280;54626;45.436;10.942;2024-02-23T08:29:20;98746.13;;;11.82
67829;BMP280;54626;45.436;10.942;2024-02-23T08:31:48;98744.63;;;11.90
67829;BMP280;54626;45.436;10.942;2024-02-23T08:34:14;98744.19;;;11.94
67829;BMP280;54626;45.436;10.942;2024-02-23T08:36:41;98751.06;;;11.93
67829;BMP280;54626;45.436;10.942;2024-02-23T08:39:07;98750.00;;;11.88
67829;BMP280;54626;45.436;10.942;2024-02-23T08:41:37;98749.34;;;11.88
67829;BMP280;54626;45.436;10.942;2024-02-23T08:44:04;98744.72;;;11.62
67829;BMP280;54626;45.436;10.942;2024-02-23T08:46:31;98744.28;;;11.65
67829;BMP280;54626;45.436;10.942;2024-02-23T08:48:57;98741.69;;;11.58
67829;BMP280;54626;45.436;10.942;2024-02-23T08:51:24;98737.59;;;11.49
67829;BMP280;54626;45.436;10.942;2024-02-23T08:53:50;98731.78;;;11.45
67829;BMP280;54626;45.436;10.942;2024-02-23T08:56:23;98736.31;;;11.41
67829;BMP280;54626;45.436;10.942;2024-02-23T08:58:49;98736.31;;;11.41
67829;BMP280;54626;45.436;10.942;2024-02-23T09:01:16;98740.97;;;11.48
67829;BMP280;54626;45.436;10.942;2024-02-23T09:03:43;98742.69;;;11.53
67829;BMP280;54626;45.436;10.942;2024-02-23T09:06:10;98751.00;;;11.53
67829;BMP280;54626;45.436;10.942;2024-02-23T09:08:37;98745.75;;;11.47
67829;BMP280;54626;45.436;10.942;2024-02-23T09:11:03;98751.44;;;11.49
67829;BMP280;54626;45.436;10.942;2024-02-23T09:13:33;98744.91;;;11.36
67829;BMP280;54626;45.436;10.942;2024-02-23T09:15:59;98745.06;;;11.28
67829;BMP280;54626;45.436;10.942;2024-02-23T09:18:26;98746.22;;;11.25
67829;BMP280;54626;45.436;10.942;2024-02-23T09:20:52;98743.78;;;11.29
67829;BMP280;54626;45.436;10.942;2024-02-23T09:23:21;98752.06;;;11.29
67829;BMP280;54626;45.436;10.942;2024-02-23T09:25:47;98751.91;;;11.37
67829;BMP280;54626;45.436;10.942;2024-02-23T09:28:14;98752.34;;;11.43
67829;BMP280;54626;45.436;10.942;2024-02-23T09:30:43;98750.16;;;11.41
67829;BMP280;54626;45.436;10.942;2024-02-23T09:33:11;98739.81;;;11.42
67829;BMP280;54626;45.436;10.942;2024-02-23T09:35:37;98733.53;;;11.50
67829;BMP280;54626;45.436;10.942;2024-02-23T09:38:05;98733.66;;;11.62
67829;BMP280;54626;45.436;10.942;2024-02-23T09:40:32;98732.19;;;11.61
67829;BMP280;54626;45.436;10.942;2024-02-23T09:42:58;98720.38;;;11.70
67829;BMP280;54626;45.436;10.942;2024-02-23T09:45:26;98723.44;;;11.74
67829;BMP280;54626;45.436;10.942;2024-02-23T09:47:57;98727.84;;;11.98
67829;BMP280;54626;45.436;10.942;2024-02-23T09:50:25;98738.44;;;12.11
67829;BMP280;54626;45.436;10.942;2024-02-23T09:52:52;98742.81;;;12.14
67829;BMP280;54626;45.436;10.942;2024-02-23T09:55:21;98752.34;;;12.31
67829;BMP280;54626;45.436;10.942;2024-02-23T09:57:49;98747.94;;;12.59
67829;BMP280;54626;45.436;10.942;2024-02-23T10:00:17;98746.97;;;12.75
67829;BMP280;54626;45.436;10.942;2024-02-23T10:02:44;98741.38;;;12.96
67829;BMP280;54626;45.436;10.942;2024-02-23T10:05:11;98746.69;;;12.92
67829;BMP280;54626;45.436;10.942;2024-02-23T10:07:39;98751.06;;;12.74
67829;BMP280;54626;45.436;10.942;2024-02-23T10:10:13;98743.19;;;12.92
67829;BMP280;54626;45.436;10.942;2024-02-23T10:12:42;98747.00;;;13.07
67829;BMP280;54626;45.436;10.942;2024-02-23T10:15:09;98738.81;;;13.09
67829;BMP280;54626;45.436;10.942;2024-02-23T10:17:43;98749.50;;;13.03
67829;BMP280;54626;45.436;10.942;2024-02-23T10:21:06;98753.69;;;12.93
67829;BMP280;54626;45.436;10.942;2024-02-23T10:23:34;98748.75;;;12.92
67829;BMP280;54626;45.436;10.942;2024-02-23T10:26:26;98751.25;;;12.88
67829;BMP280;54626;45.436;10.942;2024-02-23T10:28:55;98755.06;;;12.83
67829;BMP280;54626;45.436;10.942;2024-02-23T10:31:34;98752.31;;;12.83
67829;BMP280;54626;45.436;10.942;2024-02-23T10:34:11;98746.53;;;12.90
67829;BMP280;54626;45.436;10.942;2024-02-23T10:36:41;98757.13;;;12.82
67829;BMP280;54626;45.436;10.942;2024-02-23T10:39:15;98750.06;;;12.91
67829;BMP280;54626;45.436;10.942;2024-02-23T10:41:47;98741.63;;;12.89
67829;BMP280;54626;45.436;10.942;2024-02-23T10:44:24;98728.69;;;12.82
67829;BMP280;54626;45.436;10.942;2024-02-23T10:46:54;98729.31;;;12.92
67829;BMP280;54626;45.436;10.942;2024-02-23T10:49:23;98728.13;;;12.94
67829;BMP280;54626;45.436;10.942;2024-02-23T10:52:01;98733.81;;;12.96
67829;BMP280;54626;45.436;10.942;2024-02-23T10:54:31;98740.16;;;12.88
67829;BMP280;54626;45.436;10.942;2024-02-23T10:56:58;98734.88;;;12.92
67829;BMP280;54626;45.436;10.942;2024-02-23T10:59:31;98736.50;;;12.85
67829;BMP280;54626;45.436;10.942;2024-02-23T11:01:59;98731.84;;;12.88
67829;BMP280;54626;45.436;10.942;2024-02-23T11:04:27;98733.00;;;13.05
67829;BMP280;54626;45.436;10.942;2024-02-23T11:06:57;98743.50;;;13.07
67829;BMP280;54626;45.436;10.942;2024-02-23T11:09:26;98744.34;;;13.09
67829;BMP280;54626;45.436;10.942;2024-02-23T11:11:57;98749.16;;;13.09
67829;BMP280;54626;45.436;10.942;2024-02-23T11:14:35;98752.28;;;13.03
67829;BMP280;54626;45.436;10.942;2024-02-23T11:17:03;98756.28;;;13.00
67829;BMP280;54626;45.436;10.942;2024-02-23T11:19:34;98741.66;;;13.00
67829;BMP280;54626;45.436;10.942;2024-02-23T11:22:04;98729.72;;;13.09
67829;BMP280;54626;45.436;10.942;2024-02-23T11:24:42;98737.63;;;13.24
67829;BMP280;54626;45.436;10.942;2024-02-23T11:27:14;98745.97;;;13.24
67829;BMP280;54626;45.436;10.942;2024-02-23T11:29:47;98737.88;;;13.28
67829;BMP280;54626;45.436;10.942;2024-02-23T11:32:36;98730.88;;;13.27
67829;BMP280;54626;45.436;10.942;2024-02-23T11:35:06;98731.38;;;13.23
67829;BMP280;54626;45.436;10.942;2024-02-23T11:37:53;98726.75;;;13.16
67829;BMP280;54626;45.436;10.942;2024-02-23T11:40:34;98724.75;;;13.28
67829;BMP280;54626;45.436;10.942;2024-02-23T11:43:01;98724.63;;;13.26
67829;BMP280;54626;45.436;10.942;2024-02-23T11:45:31;98720.78;;;13.31
67829;BMP280;54626;45.436;10.942;2024-02-23T11:48:00;98725.84;;;13.35
67829;BMP280;54626;45.436;10.942;2024-02-23T11:50:27;98721.97;;;13.28
67829;BMP280;54626;45.436;10.942;2024-02-23T11:52:54;98705.41;;;13.19
67829;BMP280;54626;45.436;10.942;2024-02-23T11:55:22;98701.03;;;13.48
67829;BMP280;54626;45.436;10.942;2024-02-23T11:57:50;98696.19;;;13.49
67829;BMP280;54626;45.436;10.942;2024-02-23T12:00:30;98696.22;;;13.60
67829;BMP280;54626;45.436;10.942;2024-02-23T12:02:57;98690.78;;;13.62
67829;BMP280;54626;45.436;10.942;2024-02-23T12:05:23;98687.75;;;13.69
67829;BMP280;54626;45.436;10.942;2024-02-23T12:07:57;98681.84;;;13.75
67829;BMP280;54626;45.436;10.942;2024-02-23T12:10:25;98677.38;;;13.81
67829;BMP280;54626;45.436;10.942;2024-02-23T12:12:53;98674.94;;;13.76
67829;BMP280;54626;45.436;10.942;2024-02-23T12:15:28;98668.56;;;13.62
67829;BMP280;54626;45.436;10.942;2024-02-23T12:17:58;98686.25;;;13.46
67829;BMP280;54626;45.436;10.942;2024-02-23T12:20:28;98691.44;;;13.40
67829;BMP280;54626;45.436;10.942;2024-02-23T12:22:55;98699.06;;;13.39
67829;BMP280;54626;45.436;10.942;2024-02-23T12:25:31;98700.84;;;13.35
67829;BMP280;54626;45.436;10.942;2024-02-23T12:28:08;98708.22;;;13.42
67829;BMP280;54626;45.436;10.942;2024-02-23T12:30:58;98706.03;;;13.17
67829;BMP280;54626;45.436;10.942;2024-02-23T12:33:47;98709.97;;;13.14
67829;BMP280;54626;45.436;10.942;2024-02-23T12:36:21;98706.47;;;13.14
67829;BMP280;54626;45.436;10.942;2024-02-23T12:38:49;98716.50;;;13.07
67829;BMP280;54626;45.436;10.942;2024-02-23T12:41:15;98715.03;;;13.06
67829;BMP280;54626;45.436;10.942;2024-02-23T12:43:43;98704.00;;;12.97
67829;BMP280;54626;45.436;10.942;2024-02-23T12:46:13;98703.66;;;13.02
67829;BMP280;54626;45.436;10.942;2024-02-23T12:48:43;98704.97;;;13.01
67829;BMP280;54626;45.436;10.942;2024-02-23T12:51:10;98708.84;;;12.96
67829;BMP280;54626;45.436;10.942;2024-02-23T12:53:41;98701.19;;;12.86
67829;BMP280;54626;45.436;10.942;2024-02-23T12:58:40;98691.94;;;12.72
67829;BMP280;54626;45.436;10.942;2024-02-23T13:01:09;98695.50;;;12.63
67829;BMP280;54626;45.436;10.942;2024-02-23T13:03:37;98683.19;;;12.54
67829;BMP280;54626;45.436;10.942;2024-02-23T13:06:05;98674.91;;;12.45
67829;BMP280;54626;45.436;10.942;2024-02-23T13:08:38;98666.97;;;12.39
67829;BMP280;54626;45.436;10.942;2024-02-23T13:11:06;98673.69;;;12.36
67829;BMP280;54626;45.436;10.942;2024-02-23T13:13:35;98675.19;;;12.49
67829;BMP280;54626;45.436;10.942;2024-02-23T13:16:02;98671.44;;;12.65
67829;BMP280;54626;45.436;10.942;2024-02-23T13:18:28;98660.19;;;12.63
67829;BMP280;54626;45.436;10.942;2024-02-23T13:20:55;98669.13;;;12.62
67829;BMP280;54626;45.436;10.942;2024-02-23T13:23:29;98673.28;;;12.72
67829;BMP280;54626;45.436;10.942;2024-02-23T13:25:58;98667.72;;;12.72
67829;BMP280;54626;45.436;10.942;2024-02-23T13:28:26;98668.44;;;12.73
67829;BMP280;54626;45.436;10.942;2024-02-23T13:30:53;98673.41;;;12.74
67829;BMP280;54626;45.436;10.942;2024-02-23T13:33:20;98688.84;;;12.56
67829;BMP280;54626;45.436;10.942;2024-02-23T13:35:48;98701.47;;;12.48
67829;BMP280;54626;45.436;10.942;2024-02-23T13:38:18;98690.06;;;12.53
67829;BMP280;54626;45.436;10.942;2024-02-23T13:40:47;98691.31;;;12.41
67829;BMP280;54626;45.436;10.942;2024-02-23T13:43:16;98712.75;;;12.40
67829;BMP280;54626;45.436;10.942;2024-02-23T13:45:52;98701.66;;;12.19
67829;BMP280;54626;45.436;10.942;2024-02-23T13:48:19;98699.53;;;12.29
67829;BMP280;54626;45.436;10.942;2024-02-23T13:50:47;98693.75;;;12.25
67829;BMP280;54626;45.436;10.942;2024-02-23T13:53:16;98688.06;;;12.23
67829;BMP280;54626;45.436;10.942;2024-02-23T13:55:42;98687.13;;;12.30
67829;BMP280;54626;45.436;10.942;2024-02-23T13:58:12;98677.66;;;12.33
67829;BMP280;54626;45.436;10.942;2024-02-23T14:00:43;98685.28;;;12.23
67829;BMP280;54626;45.436;10.942;2024-02-23T14:03:16;98691.09;;;12.27
67829;BMP280;54626;45.436;10.942;2024-02-23T14:05:45;98690.44;;;12.38
67829;BMP280;54626;45.436;10.942;2024-02-23T14:08:16;98684.66;;;12.34
67829;BMP280;54626;45.436;10.942;2024-02-23T14:10:43;98675.66;;;12.24
67829;BMP280;54626;45.436;10.942;2024-02-23T14:13:10;98665.16;;;12.23
67829;BMP280;54626;45.436;10.942;2024-02-23T14:15:39;98665.81;;;12.33
67829;BMP280;54626;45.436;10.942;2024-02-23T14:18:06;98663.94;;;12.35
67829;BMP280;54626;45.436;10.942;2024-02-23T14:20:32;98683.44;;;12.37
67829;BMP280;54626;45.436;10.942;2024-02-23T14:23:02;98673.47;;;12.23
67829;BMP280;54626;45.436;10.942;2024-02-23T14:25:33;98674.91;;;12.24
67829;BMP280;54626;45.436;10.942;2024-02-23T14:27:59;98676.13;;;12.21
67829;BMP280;54626;45.436;10.942;2024-02-23T14:30:26;98687.03;;;12.28
67829;BMP280;54626;45.436;10.942;2024-02-23T14:33:07;98671.56;;;12.25
67829;BMP280;54626;45.436;10.942;2024-02-23T14:35:34;98670.78;;;12.34
67829;BMP280;54626;45.436;10.942;2024-02-23T14:38:01;98672.81;;;12.34
67829;BMP280;54626;45.436;10.942;2024-02-23T14:40:29;98664.75;;;12.38
67829;BMP280;54626;45.436;10.942;2024-02-23T14:42:56;98667.09;;;12.41
67829;BMP280;54626;45.436;10.942;2024-02-23T14:45:25;98657.31;;;12.40
67829;BMP280;54626;45.436;10.942;2024-02-23T14:47:53;98665.50;;;12.38
67829;BMP280;54626;45.436;10.942;2024-02-23T14:50:21;98665.66;;;12.40
67829;BMP280;54626;45.436;10.942;2024-02-23T14:52:49;98671.44;;;12.44
67829;BMP280;54626;45.436;10.942;2024-02-23T14:55:16;98670.25;;;12.47
67829;BMP280;54626;45.436;10.942;2024-02-23T14:57:43;98686.16;;;12.47
67829;BMP280;54626;45.436;10.942;2024-02-23T15:00:10;98687.53;;;12.36
67829;BMP280;54626;45.436;10.942;2024-02-23T15:02:36;98681.59;;;12.30
67829;BMP280;54626;45.436;10.942;2024-02-23T15:05:05;98678.63;;;12.38
67829;BMP280;54626;45.436;10.942;2024-02-23T15:07:34;98684.66;;;12.34
67829;BMP280;54626;45.436;10.942;2024-02-23T15:10:03;98694.41;;;12.15
67829;BMP280;54626;45.436;10.942;2024-02-23T15:12:35;98685.97;;;12.33
67829;BMP280;54626;45.436;10.942;2024-02-23T15:15:02;98659.31;;;12.28
67829;BMP280;54626;45.436;10.942;2024-02-23T15:17:30;98654.03;;;12.32
67829;BMP280;54626;45.436;10.942;2024-02-23T15:19:56;98649.00;;;12.40
67829;BMP280;54626;45.436;10.942;2024-02-23T15:22:23;98646.50;;;12.44
67829;BMP280;54626;45.436;10.942;2024-02-23T15:24:52;98647.69;;;12.41
67829;BMP280;54626;45.436;10.942;2024-02-23T15:27:18;98655.78;;;12.49
67829;BMP280;54626;45.436;10.942;2024-02-23T15:29:47;98667.00;;;12.51
67829;BMP280;54626;45.436;10.942;2024-02-23T15:32:14;98661.13;;;12.56
67829;BMP280;54626;45.436;10.942;2024-02-23T15:34:42;98650.75;;;12.57
67829;BMP280;54626;45.436;10.942;2024-02-23T15:37:10;98653.91;;;12.63
67829;BMP280;54626;45.436;10.942;2024-02-23T15:39:36;98647.19;;;12.66
67829;BMP280;54626;45.436;10.942;2024-02-23T15:42:03;98631.69;;;12.51
67829;BMP280;54626;45.436;10.942;2024-02-23T15:44:30;98623.00;;;12.45
67829;BMP280;54626;45.436;10.942;2024-02-23T15:46:58;98614.75;;;12.36
67829;BMP280;54626;45.436;10.942;2024-02-23T15:49:24;98618.25;;;12.36
67829;BMP280;54626;45.436;10.942;2024-02-23T15:52:11;98625.03;;;12.45
67829;BMP280;54626;45.436;10.942;2024-02-23T15:54:39;98622.38;;;12.35
67829;BMP280;54626;45.436;10.942;2024-02-23T15:57:05;98622.75;;;12.41
67829;BMP280;54626;45.436;10.942;2024-02-23T15:59:34;98608.16;;;12.41
67829;BMP280;54626;45.436;10.942;2024-02-23T16:02:01;98607.56;;;12.42
67829;BMP280;54626;45.436;10.942;2024-02-23T16:04:29;98600.59;;;12.41
67829;BMP280;54626;45.436;10.942;2024-02-23T16:06:55;98608.63;;;12.17
67829;BMP280;54626;45.436;10.942;2024-02-23T16:09:22;98600.09;;;12.03
67829;BMP280;54626;45.436;10.942;2024-02-23T16:11:49;98610.13;;;11.87
67829;BMP280;54626;45.436;10.942;2024-02-23T16:14:16;98621.41;;;11.80
67829;BMP280;54626;45.436;10.942;2024-02-23T16:16:43;98642.88;;;11.70
67829;BMP280;54626;45.436;10.942;2024-02-23T16:19:10;98646.97;;;11.59
67829;BMP280;54626;45.436;10.942;2024-02-23T16:21:39;98642.78;;;11.49
67829;BMP280;54626;45.436;10.942;2024-02-23T16:24:08;98638.00;;;11.40
67829;BMP280;54626;45.436;10.942;2024-02-23T16:26:35;98652.31;;;11.37
67829;BMP280;54626;45.436;10.942;2024-02-23T16:29:06;98671.69;;;11.27
67829;BMP280;54626;45.436;10.942;2024-02-23T16:31:34;98683.19;;;11.24
67829;BMP280;54626;45.436;10.942;2024-02-23T16:34:01;98677.81;;;11.16
67829;BMP280;54626;45.436;10.942;2024-02-23T16:36:29;98689.91;;;11.11
67829;BMP280;54626;45.436;10.942;2024-02-23T16:38:57;98689.75;;;11.09
67829;BMP280;54626;45.436;10.942;2024-02-23T16:41:23;98685.09;;;11.02
67829;BMP280;54626;45.436;10.942;2024-02-23T16:43:53;98689.22;;;11.01
67829;BMP280;54626;45.436;10.942;2024-02-23T17:26:17;98724.84;;;10.14
67829;BMP280;54626;45.436;10.942;2024-02-23T17:28:44;98724.34;;;10.08
67829;BMP280;54626;45.436;10.942;2024-02-23T17:31:18;98722.63;;;10.13
67829;BMP280;54626;45.436;10.942;2024-02-23T17:40:48;98706.75;;;10.04
67829;BMP280;54626;45.436;10.942;2024-02-23T17:57:46;98731.78;;;10.06
67829;BMP280;54626;45.436;10.942;2024-02-23T18:39:29;98788.34;;;10.50
67829;BMP280;54626;45.436;10.942;2024-02-23T19:34:50;98862.66;;;10.91
67829;BMP280;54626;45.436;10.942;2024-02-23T19:37:18;98861.47;;;10.85
67829;BMP280;54626;45.436;10.942;2024-02-23T19:39:47;98859.13;;;10.81
67829;BMP280;54626;45.436;10.942;2024-02-23T19:42:14;98866.13;;;10.82
67829;BMP280;54626;45.436;10.942;2024-02-23T19:44:41;98870.88;;;10.72
67829;BMP280;54626;45.436;10.942;2024-02-23T19:47:08;98882.09;;;10.74
67829;BMP280;54626;45.436;10.942;2024-02-23T19:49:35;98887.19;;;10.78
67829;BMP280;54626;45.436;10.942;2024-02-23T19:52:03;98882.41;;;10.78
67829;BMP280;54626;45.436;10.942;2024-02-23T19:54:32;98885.88;;;10.79
67829;BMP280;54626;45.436;10.942;2024-02-23T20:32:34;98913.06;;;10.73
67829;BMP280;54626;45.436;10.942;2024-02-23T20:38:59;98913.81;;;10.73
67829;BMP280;54626;45.436;10.942;2024-02-23T20:44:15;98909.22;;;10.85
67829;BMP280;54626;45.436;10.942;2024-02-23T20:46:42;98908.59;;;10.77
67829;BMP280;54626;45.436;10.942;2024-02-23T20:49:08;98910.63;;;10.77
67829;BMP280;54626;45.436;10.942;2024-02-23T21:01:35;98920.44;;;10.35
67829;BMP280;54626;45.436;10.942;2024-02-23T21:04:01;98921.91;;;10.36
67829;BMP280;54626;45.436;10.942;2024-02-23T22:07:25;99018.06;;;9.38
67829;BMP280;54626;45.436;10.942;2024-02-23T22:09:54;99023.13;;;9.24
67829;BMP280;54626;45.436;10.942;2024-02-23T22:12:27;99029.06;;;9.13
67829;BMP280;54626;45.436;10.942;2024-02-23T22:14:54;99026.22;;;8.97
67829;BMP280;54626;45.436;10.942;2024-02-23T22:17:21;99021.81;;;8.94
67829;BMP280;54626;45.436;10.942;2024-02-23T22:19:47;99033.44;;;8.85
67829;BMP280;54626;45.436;10.942;2024-02-23T22:22:14;99027.94;;;8.85